createdAt,value
2022-10-15T00:01:54.453Z,77.70
2022-10-15T00:04:23.353Z,77.90
2022-10-15T00:06:52.022Z,77.90
2022-10-15T00:09:21.058Z,77.80
2022-10-15T00:11:51.339Z,77.80
2022-10-15T00:14:20.406Z,77.80
2022-10-15T00:16:49.204Z,77.80
2022-10-15T00:19:18.796Z,78.00
2022-10-15T00:21:47.666Z,78.00
2022-10-15T00:24:16.542Z,78.00
2022-10-15T00:26:45.377Z,78.00
2022-10-15T00:29:15.565Z,78.10
2022-10-15T00:31:45.443Z,78.10
2022-10-15T00:34:15.560Z,78.00
2022-10-15T00:36:44.436Z,78.00
2022-10-15T00:39:13.615Z,78.00
2022-10-15T00:41:44.427Z,78.10
2022-10-15T00:44:59.095Z,78.20
2022-10-15T00:47:36.246Z,78.40
2022-10-15T00:50:08.211Z,78.30
2022-10-15T00:52:44.475Z,78.30
2022-10-15T00:55:17.260Z,78.30
2022-10-15T00:57:50.508Z,78.40
2022-10-15T01:00:19.938Z,78.40
2022-10-15T01:02:50.357Z,78.40
2022-10-15T01:05:20.350Z,78.50
2022-10-15T01:07:49.265Z,78.40
2022-10-15T01:10:19.423Z,78.40
2022-10-15T01:12:59.563Z,78.40
2022-10-15T01:15:34.799Z,78.50
2022-10-15T01:18:10.953Z,78.60
2022-10-15T01:20:52.236Z,78.60
2022-10-15T01:23:46.283Z,78.40
2022-10-15T01:26:48.033Z,78.40
2022-10-15T01:29:33.938Z,78.50
2022-10-15T01:32:12.525Z,78.40
2022-10-15T01:34:48.614Z,78.30
2022-10-15T01:37:23.025Z,78.40
2022-10-15T01:39:58.531Z,78.30
2022-10-15T01:42:32.820Z,78.30
2022-10-15T01:45:06.960Z,78.40
2022-10-15T01:47:50.567Z,78.40
2022-10-15T01:50:24.416Z,78.40
2022-10-15T01:52:55.723Z,78.30
2022-10-15T01:55:27.567Z,78.30
2022-10-15T01:57:59.722Z,78.30
2022-10-15T02:00:28.600Z,78.40
2022-10-15T02:03:02.125Z,78.40
2022-10-15T02:05:38.192Z,78.40
2022-10-15T02:08:18.877Z,78.70
2022-10-15T02:10:55.157Z,78.60
2022-10-15T02:13:27.844Z,78.60
2022-10-15T02:16:06.236Z,78.70
2022-10-15T02:18:41.980Z,78.70
2022-10-15T02:21:15.655Z,78.80
2022-10-15T02:23:52.621Z,78.70
2022-10-15T02:26:26.689Z,78.70
2022-10-15T02:28:59.212Z,78.70
2022-10-15T02:31:30.912Z,78.70
2022-10-15T02:34:05.883Z,78.90
2022-10-15T02:36:35.275Z,78.90
2022-10-15T02:39:10.444Z,78.80
2022-10-15T02:41:41.379Z,78.90
2022-10-15T02:44:14.202Z,78.90
2022-10-15T02:46:43.289Z,78.90
2022-10-15T02:49:14.819Z,78.90
2022-10-15T02:51:43.852Z,79.00
2022-10-15T02:54:14.956Z,78.90
2022-10-15T02:56:44.201Z,79.00
2022-10-15T02:59:13.731Z,79.00
2022-10-15T03:01:42.843Z,79.10
2022-10-15T03:04:13.834Z,79.00
2022-10-15T03:06:42.850Z,79.00
2022-10-15T03:09:12.198Z,79.00
2022-10-15T03:11:41.175Z,79.00
2022-10-15T03:14:10.395Z,79.00
2022-10-15T03:16:41.019Z,79.00
2022-10-15T03:19:11.766Z,79.00
2022-10-15T03:21:43.095Z,79.00
2022-10-15T03:24:16.578Z,79.00
2022-10-15T03:26:45.853Z,79.00
2022-10-15T03:29:14.742Z,79.10
2022-10-15T03:31:48.983Z,79.00
2022-10-15T03:34:18.419Z,79.20
2022-10-15T03:36:49.834Z,79.20
2022-10-15T03:39:19.759Z,79.10
2022-10-15T03:41:48.895Z,79.20
2022-10-15T03:44:24.824Z,79.20
2022-10-15T03:47:05.268Z,79.30
2022-10-15T03:49:43.571Z,79.20
2022-10-15T03:52:14.139Z,79.20
2022-10-15T03:54:44.165Z,79.30
2022-10-15T03:57:14.915Z,79.30
2022-10-15T03:59:53.437Z,79.40
2022-10-15T04:02:25.664Z,79.40
2022-10-15T04:04:56.340Z,79.40
2022-10-15T04:07:27.196Z,79.40
2022-10-15T04:09:56.166Z,79.40
2022-10-15T04:12:29.459Z,79.40
2022-10-15T04:14:58.632Z,79.40
2022-10-15T04:17:27.858Z,80.20
2022-10-15T04:19:56.742Z,79.50
2022-10-15T04:22:27.303Z,79.60
2022-10-15T04:25:01.128Z,79.60
2022-10-15T04:27:31.996Z,79.50
2022-10-15T04:30:09.087Z,79.50
2022-10-15T04:32:41.407Z,79.40
2022-10-15T04:35:10.928Z,79.50
2022-10-15T04:38:00.456Z,79.60
2022-10-15T04:40:36.542Z,79.60
2022-10-15T04:43:05.899Z,79.50
2022-10-15T04:45:35.076Z,79.50
2022-10-15T04:48:04.157Z,79.60
2022-10-15T04:50:33.171Z,79.60
2022-10-15T04:53:31.699Z,79.60
2022-10-15T04:56:05.326Z,79.70
2022-10-15T04:58:36.119Z,79.70
2022-10-15T05:01:06.917Z,79.70
2022-10-15T05:03:50.500Z,79.80
2022-10-15T05:06:21.810Z,79.90
2022-10-15T05:08:57.199Z,79.90
2022-10-15T05:11:30.104Z,80.00
2022-10-15T05:14:00.613Z,80.00
2022-10-15T05:16:31.352Z,80.00
2022-10-15T05:19:04.237Z,80.00
2022-10-15T05:21:35.674Z,80.00
2022-10-15T05:24:10.458Z,80.00
2022-10-15T05:26:56.804Z,80.00
2022-10-15T05:29:26.038Z,80.00
2022-10-15T05:31:55.042Z,80.00
2022-10-15T05:34:30.425Z,80.00
2022-10-15T05:37:07.994Z,80.00
2022-10-15T05:39:38.395Z,80.00
2022-10-15T05:42:07.234Z,80.00
2022-10-15T05:44:43.320Z,80.10
2022-10-15T05:47:12.600Z,80.10
2022-10-15T05:49:43.181Z,80.10
2022-10-15T05:52:25.325Z,80.20
2022-10-15T05:55:14.496Z,80.10
2022-10-15T05:57:43.458Z,80.10
2022-10-15T06:00:14.199Z,80.20
2022-10-15T06:02:43.352Z,80.20
2022-10-15T06:05:13.297Z,80.20
2022-10-15T06:07:42.236Z,80.20
2022-10-15T06:10:12.702Z,80.30
2022-10-15T06:12:44.000Z,80.40
2022-10-15T06:15:12.848Z,80.50
2022-10-15T06:17:41.833Z,80.50
2022-10-15T06:20:12.529Z,80.50
2022-10-15T06:22:41.339Z,80.50
2022-10-15T06:25:11.448Z,80.50
2022-10-15T06:27:42.123Z,80.60
2022-10-15T06:30:12.099Z,80.60
2022-10-15T06:32:41.383Z,80.50
2022-10-15T06:35:10.612Z,80.60
2022-10-15T06:37:39.725Z,80.70
2022-10-15T06:40:11.568Z,80.70
2022-10-15T06:42:45.654Z,80.80
2022-10-15T06:45:16.997Z,80.80
2022-10-15T06:47:48.301Z,80.80
2022-10-15T06:50:17.171Z,80.90
2022-10-15T06:52:46.030Z,80.90
2022-10-15T06:55:15.230Z,80.70
2022-10-15T06:57:45.429Z,80.70
2022-10-15T07:00:18.313Z,80.70
2022-10-15T07:02:49.337Z,80.70
2022-10-15T07:05:18.986Z,80.60
2022-10-15T07:07:52.872Z,80.50
2022-10-15T07:10:23.170Z,80.70
2022-10-15T07:12:54.915Z,80.80
2022-10-15T07:15:24.394Z,80.80
2022-10-15T07:17:56.601Z,80.80
2022-10-15T07:20:25.727Z,81.20
2022-10-15T07:22:58.092Z,80.80
2022-10-15T07:25:31.874Z,81.00
2022-10-15T07:28:02.439Z,81.00
2022-10-15T07:30:31.789Z,81.10
2022-10-15T07:33:01.013Z,81.20
2022-10-15T07:35:30.934Z,81.40
2022-10-15T07:38:02.384Z,81.50
2022-10-15T07:40:31.691Z,81.50
2022-10-15T07:43:02.398Z,81.50
2022-10-15T07:45:33.484Z,81.60
2022-10-15T07:48:02.567Z,81.60
2022-10-15T07:50:35.443Z,81.60
2022-10-15T07:53:09.421Z,81.70
2022-10-15T07:55:39.247Z,81.70
2022-10-15T07:58:09.762Z,81.80
2022-10-15T08:00:38.912Z,81.90
2022-10-15T08:03:08.283Z,81.90
2022-10-15T08:05:37.289Z,81.70
2022-10-15T08:08:06.694Z,81.80
2022-10-15T08:10:37.518Z,81.80
2022-10-15T08:13:06.729Z,81.90
2022-10-15T08:15:40.607Z,81.90
2022-10-15T08:18:09.964Z,82.00
2022-10-15T08:20:38.983Z,81.80
2022-10-15T08:23:16.207Z,81.70
2022-10-15T08:25:45.591Z,81.80
2022-10-15T08:28:16.668Z,81.70
2022-10-15T08:30:46.984Z,81.60
2022-10-15T08:33:16.108Z,81.40
2022-10-15T08:35:45.304Z,81.30
2022-10-15T08:38:17.512Z,81.10
2022-10-15T08:40:50.543Z,81.00
2022-10-15T08:43:24.364Z,80.80
2022-10-15T08:45:58.819Z,80.80
2022-10-15T08:48:32.079Z,80.80
2022-10-15T08:51:04.972Z,80.90
2022-10-15T08:53:39.902Z,80.80
2022-10-15T08:56:16.925Z,80.70
2022-10-15T08:58:52.742Z,80.70
2022-10-15T09:01:30.568Z,80.70
2022-10-15T09:04:15.783Z,80.70
2022-10-15T09:06:45.451Z,80.70
2022-10-15T09:09:21.623Z,80.70
2022-10-15T09:12:00.294Z,80.80
2022-10-15T09:14:34.720Z,81.20
2022-10-15T09:17:15.295Z,81.00
2022-10-15T09:19:47.319Z,81.00
2022-10-15T09:22:20.023Z,81.00
2022-10-15T09:24:49.163Z,81.00
2022-10-15T09:27:31.443Z,80.90
2022-10-15T09:30:06.900Z,80.90
2022-10-15T09:32:42.424Z,81.00
2022-10-15T09:35:18.059Z,80.90
2022-10-15T09:37:53.894Z,80.90
2022-10-15T09:40:37.094Z,81.00
2022-10-15T09:43:06.931Z,80.70
2022-10-15T09:45:35.843Z,80.70
2022-10-15T09:48:16.400Z,80.70
2022-10-15T09:50:55.053Z,80.70
2022-10-15T09:53:34.121Z,80.70
2022-10-15T09:56:09.182Z,80.70
2022-10-15T09:58:50.823Z,80.70
2022-10-15T10:01:22.213Z,80.70
2022-10-15T10:04:09.887Z,81.00
2022-10-15T10:06:46.206Z,81.00
2022-10-15T10:09:20.220Z,81.30
2022-10-15T10:11:52.819Z,81.30
2022-10-15T10:14:28.612Z,81.30
2022-10-15T10:17:17.310Z,81.30
2022-10-15T10:20:05.554Z,81.10
2022-10-15T10:22:46.573Z,80.90
2022-10-15T10:25:30.481Z,80.50
2022-10-15T10:28:05.472Z,80.10
2022-10-15T10:30:37.405Z,80.20
2022-10-15T10:33:07.333Z,80.30
2022-10-15T10:35:47.389Z,80.30
2022-10-15T10:38:22.215Z,80.50
2022-10-15T10:40:52.452Z,80.60
2022-10-15T10:43:26.370Z,80.30
2022-10-15T10:45:57.756Z,80.20
2022-10-15T10:48:29.447Z,80.00
2022-10-15T10:51:10.511Z,79.70
2022-10-15T10:53:52.911Z,79.60
2022-10-15T10:56:26.160Z,79.50
2022-10-15T10:58:58.982Z,79.20
2022-10-15T11:01:29.003Z,79.00
2022-10-15T11:03:57.995Z,78.50
2022-10-15T11:06:57.070Z,78.40
2022-10-15T11:09:52.314Z,77.40
2022-10-15T11:12:41.007Z,77.10
2022-10-15T11:15:25.215Z,77.30
2022-10-15T11:18:07.531Z,77.20
2022-10-15T11:20:58.681Z,77.10
2022-10-15T11:23:47.854Z,77.00
2022-10-15T11:26:37.597Z,76.90
2022-10-15T11:29:34.839Z,76.30
2022-10-15T11:32:17.230Z,76.50
2022-10-15T11:35:05.439Z,75.50
2022-10-15T11:37:45.927Z,74.80
2022-10-15T11:40:26.012Z,74.60
2022-10-15T11:42:58.263Z,74.00
2022-10-15T11:45:54.178Z,73.70
2022-10-15T11:48:36.690Z,73.00
2022-10-15T11:51:13.181Z,73.10
2022-10-15T11:54:13.473Z,73.40
2022-10-15T11:56:47.709Z,73.10
2022-10-15T11:59:26.528Z,72.60
2022-10-15T12:01:59.083Z,72.30
2022-10-15T12:04:34.815Z,72.30
2022-10-15T12:07:07.734Z,72.30
2022-10-15T12:09:41.895Z,72.40
2022-10-15T12:12:20.126Z,72.30
2022-10-15T12:14:57.702Z,72.20
2022-10-15T12:17:37.510Z,71.70
2022-10-15T12:20:13.070Z,70.80
2022-10-15T12:22:55.903Z,70.00
2022-10-15T12:25:44.811Z,69.40
2022-10-15T12:28:21.720Z,69.00
2022-10-15T12:30:56.899Z,68.80
2022-10-15T12:33:36.064Z,68.80
2022-10-15T12:36:09.851Z,69.00
2022-10-15T12:38:41.702Z,69.20
2022-10-15T12:41:12.416Z,69.30
2022-10-15T12:43:46.709Z,69.80
2022-10-15T12:46:15.796Z,69.70
2022-10-15T12:48:46.345Z,70.10
2022-10-15T12:51:40.111Z,69.70
2022-10-15T12:54:35.185Z,69.80
2022-10-15T12:57:25.881Z,69.80
2022-10-15T13:00:00.340Z,69.40
2022-10-15T13:05:28.227Z,69.80
2022-10-15T13:07:59.582Z,70.20
2022-10-15T13:10:30.820Z,70.20
2022-10-15T13:13:02.558Z,70.60
2022-10-15T13:15:35.213Z,70.50
2022-10-15T13:18:09.482Z,70.70
2022-10-15T13:20:40.885Z,70.80
2022-10-15T13:23:29.400Z,71.10
2022-10-15T13:26:19.458Z,71.30
2022-10-15T13:28:49.236Z,71.10
2022-10-15T13:31:27.471Z,71.20
2022-10-15T13:34:02.345Z,71.40
2022-10-15T13:36:33.420Z,71.70
2022-10-15T13:39:06.434Z,71.80
2022-10-15T13:41:37.721Z,72.20
2022-10-15T13:44:06.730Z,72.50
2022-10-15T13:46:38.932Z,72.80
2022-10-15T13:49:13.048Z,73.10
2022-10-15T13:51:44.484Z,72.70
2022-10-15T13:54:18.294Z,72.80
2022-10-15T13:56:53.903Z,72.70
2022-10-15T13:59:24.098Z,72.80
2022-10-15T14:02:00.960Z,72.50
2022-10-15T14:04:31.289Z,72.60
2022-10-15T14:07:04.584Z,72.70
2022-10-15T14:09:35.374Z,72.90
2022-10-15T14:12:07.463Z,73.20
2022-10-15T14:14:39.240Z,73.70
2022-10-15T14:17:13.182Z,73.80
2022-10-15T14:19:51.480Z,74.00
2022-10-15T14:22:31.698Z,74.00
2022-10-15T14:25:01.191Z,73.90
2022-10-15T14:27:30.766Z,74.00
2022-10-15T14:30:02.611Z,74.00
2022-10-15T14:32:46.885Z,74.10
2022-10-15T14:35:25.644Z,74.10
2022-10-15T14:38:01.998Z,74.10
2022-10-15T14:40:31.722Z,74.10
2022-10-15T14:43:05.937Z,73.80
2022-10-15T14:45:55.758Z,73.90
2022-10-15T14:48:28.050Z,74.10
2022-10-15T14:51:00.571Z,74.20
2022-10-15T14:53:32.609Z,74.40
2022-10-15T14:56:05.024Z,74.60
2022-10-15T14:58:34.117Z,75.00
2022-10-15T15:01:05.472Z,75.10
2022-10-15T15:03:42.645Z,75.20
2022-10-15T15:06:11.828Z,75.50
2022-10-15T15:08:40.768Z,75.40
2022-10-15T15:11:14.274Z,75.20
2022-10-15T15:13:45.235Z,75.30
2022-10-15T15:16:15.663Z,75.40
2022-10-15T15:18:48.288Z,75.20
2022-10-15T15:21:21.650Z,75.10
2022-10-15T15:23:50.631Z,75.10
2022-10-15T15:26:19.331Z,74.90
2022-10-15T15:28:48.243Z,74.80
2022-10-15T15:31:19.163Z,74.70
2022-10-15T15:33:49.381Z,74.70
2022-10-15T15:36:23.264Z,74.70
2022-10-15T15:38:53.505Z,74.70
2022-10-15T15:41:24.811Z,74.70
2022-10-15T15:43:54.933Z,74.70
2022-10-15T15:46:24.097Z,74.80
2022-10-15T15:48:54.495Z,74.80
2022-10-15T15:51:26.585Z,74.90
2022-10-15T15:53:55.879Z,74.90
2022-10-15T15:56:25.448Z,75.10
2022-10-15T15:58:54.426Z,75.20
2022-10-15T16:01:23.477Z,75.30
2022-10-15T16:03:53.905Z,75.10
2022-10-15T16:06:22.991Z,75.00
2022-10-15T16:08:53.281Z,75.20
2022-10-15T16:11:22.415Z,75.20
2022-10-15T16:13:51.227Z,75.20
2022-10-15T16:16:20.110Z,75.10
2022-10-15T16:18:49.119Z,75.20
2022-10-15T16:21:23.805Z,75.30
2022-10-15T16:23:52.971Z,75.30
2022-10-15T16:26:22.278Z,75.00
2022-10-15T16:28:51.311Z,75.10
2022-10-15T16:31:25.330Z,75.20
2022-10-15T16:33:57.208Z,75.20
2022-10-15T16:36:27.692Z,75.10
2022-10-15T16:38:56.875Z,75.10
2022-10-15T16:41:25.715Z,75.10
2022-10-15T16:43:55.267Z,75.20
2022-10-15T16:46:24.295Z,75.20
2022-10-15T16:48:55.137Z,75.20
2022-10-15T16:51:25.298Z,75.20
2022-10-15T16:53:56.062Z,75.20
2022-10-15T16:56:26.922Z,75.30
2022-10-15T16:58:57.092Z,75.30
2022-10-15T17:01:28.687Z,75.40
2022-10-15T17:03:59.862Z,75.50
2022-10-15T17:06:31.446Z,75.50
2022-10-15T17:09:04.173Z,75.70
2022-10-15T17:11:35.827Z,75.70
2022-10-15T17:14:07.030Z,75.70
2022-10-15T17:16:39.059Z,75.80
2022-10-15T17:19:08.568Z,75.90
2022-10-15T17:21:39.633Z,75.80
2022-10-15T17:24:13.368Z,76.00
2022-10-15T17:26:43.618Z,76.10
2022-10-15T17:29:16.165Z,76.20
2022-10-15T17:31:45.140Z,76.30
2022-10-15T17:34:14.824Z,76.50
2022-10-15T17:36:47.151Z,76.50
2022-10-15T17:39:19.443Z,76.60
2022-10-15T17:41:48.531Z,76.70
2022-10-15T17:44:17.352Z,76.90
2022-10-15T17:46:46.393Z,76.90
2022-10-15T17:49:18.490Z,77.00
2022-10-15T17:51:48.361Z,77.20
2022-10-15T17:54:18.700Z,77.30
2022-10-15T17:56:48.554Z,77.40
2022-10-15T17:59:18.043Z,77.40
2022-10-15T18:02:02.473Z,77.40
2022-10-15T18:04:35.986Z,77.50
2022-10-15T18:07:05.004Z,77.50
2022-10-15T18:09:36.062Z,77.50
2022-10-15T18:12:05.543Z,78.40
2022-10-15T18:14:36.043Z,77.60
2022-10-15T18:17:05.879Z,77.70
2022-10-15T18:19:34.673Z,77.80
2022-10-15T18:22:03.776Z,77.80
2022-10-15T18:24:33.165Z,77.90
2022-10-15T18:27:07.791Z,78.70
2022-10-15T18:29:36.952Z,78.00
2022-10-15T18:32:05.957Z,78.00
2022-10-15T18:34:35.579Z,78.10
2022-10-15T18:37:04.391Z,78.10
2022-10-15T18:39:33.178Z,78.10
2022-10-15T18:42:03.708Z,78.20
2022-10-15T18:44:34.421Z,78.30
2022-10-15T18:47:03.153Z,78.40
2022-10-15T18:49:33.047Z,78.40
2022-10-15T18:52:10.657Z,78.50
2022-10-15T18:54:50.690Z,78.50
2022-10-15T18:57:19.454Z,78.50
2022-10-15T18:59:49.502Z,78.50
2022-10-15T19:02:18.314Z,78.50
2022-10-15T19:04:47.418Z,78.50
2022-10-15T19:07:16.512Z,78.50
2022-10-15T19:09:47.700Z,78.50
2022-10-15T19:12:19.225Z,78.50
2022-10-15T19:14:49.514Z,78.50
2022-10-15T19:17:18.220Z,78.20
2022-10-15T19:19:50.039Z,78.40
2022-10-15T19:22:19.400Z,78.40
2022-10-15T19:24:48.346Z,78.20
2022-10-15T19:27:17.096Z,78.10
2022-10-15T19:30:15.977Z,78.10
2022-10-15T19:32:47.192Z,78.10
2022-10-15T19:35:16.181Z,77.80
2022-10-15T19:37:45.740Z,77.80
2022-10-15T19:40:15.006Z,77.60
2022-10-15T19:42:44.135Z,77.80
2022-10-15T19:45:13.052Z,77.90
2022-10-15T19:47:43.346Z,77.80
2022-10-15T19:50:12.492Z,78.60
2022-10-15T19:52:41.713Z,77.90
2022-10-15T19:55:10.775Z,77.80
2022-10-15T19:57:39.534Z,77.80
2022-10-15T20:00:09.638Z,77.80
2022-10-15T20:02:43.014Z,77.90
2022-10-15T20:05:11.996Z,77.80
2022-10-15T20:07:40.887Z,77.70
2022-10-15T20:10:10.887Z,77.80
2022-10-15T20:12:40.121Z,77.80
2022-10-15T20:15:10.839Z,77.80
2022-10-15T20:17:40.108Z,77.80
2022-10-15T20:20:10.376Z,77.70
2022-10-15T20:22:39.112Z,77.80
2022-10-15T20:25:08.387Z,77.80
2022-10-15T20:27:37.402Z,77.80
2022-10-15T20:30:07.083Z,77.80
2022-10-15T20:32:36.986Z,77.90
2022-10-15T20:35:06.840Z,77.80
2022-10-15T20:37:37.115Z,77.90
2022-10-15T20:40:07.601Z,77.80
2022-10-15T20:42:37.705Z,77.90
2022-10-15T20:45:09.459Z,77.90
2022-10-15T20:47:42.098Z,77.80
2022-10-15T20:50:14.611Z,77.80
2022-10-15T20:52:45.257Z,77.80
2022-10-15T20:55:14.570Z,77.80
2022-10-15T20:57:43.525Z,77.70
2022-10-15T21:00:14.066Z,77.70
2022-10-15T21:02:43.338Z,77.80
2022-10-15T21:05:12.337Z,77.80
2022-10-15T21:07:41.112Z,77.80
2022-10-15T21:10:11.652Z,77.90
2022-10-15T21:12:40.874Z,78.10
2022-10-15T21:15:10.479Z,78.20
2022-10-15T21:17:40.922Z,78.40
2022-10-15T21:20:10.566Z,78.40
2022-10-15T21:22:39.573Z,78.60
2022-10-15T21:25:09.268Z,78.60
2022-10-15T21:27:39.558Z,78.60
2022-10-15T21:30:10.273Z,78.80
2022-10-15T21:32:39.391Z,78.90
2022-10-15T21:35:09.107Z,79.00
2022-10-15T21:37:38.939Z,79.00
2022-10-15T21:40:09.137Z,79.00
2022-10-15T21:42:40.169Z,79.20
2022-10-15T21:45:10.796Z,79.20
2022-10-15T21:47:39.875Z,79.20
2022-10-15T21:50:09.510Z,79.20
2022-10-15T21:52:38.474Z,79.20
2022-10-15T21:55:08.409Z,79.40
2022-10-15T21:57:38.749Z,79.40
2022-10-15T22:00:14.599Z,79.50
2022-10-15T22:02:50.521Z,79.60
2022-10-15T22:05:19.578Z,79.50
2022-10-15T22:07:48.638Z,79.40
2022-10-15T22:10:17.812Z,79.40
2022-10-15T22:12:53.683Z,80.20
2022-10-15T22:15:22.590Z,79.50
2022-10-15T22:17:51.378Z,79.40
2022-10-15T22:20:23.704Z,79.30
2022-10-15T22:22:55.131Z,79.40
2022-10-15T22:25:24.034Z,79.50
2022-10-15T22:27:54.171Z,79.40
2022-10-15T22:30:23.017Z,79.40
2022-10-15T22:32:52.163Z,79.50
2022-10-15T22:35:21.782Z,79.60
2022-10-15T22:37:51.523Z,79.60
2022-10-15T22:40:20.516Z,79.60
2022-10-15T22:42:49.260Z,79.60
2022-10-15T22:45:19.471Z,79.50
2022-10-15T22:47:48.507Z,79.60
2022-10-15T22:50:17.535Z,79.50
2022-10-15T22:52:46.263Z,79.50
2022-10-15T22:55:15.290Z,79.40
2022-10-15T22:57:45.062Z,79.40
2022-10-15T23:00:16.149Z,79.40
2022-10-15T23:02:47.316Z,79.40
2022-10-15T23:05:16.532Z,79.50
2022-10-15T23:07:45.531Z,79.50
2022-10-15T23:10:14.723Z,79.70
2022-10-15T23:12:43.794Z,79.60
2022-10-15T23:15:13.131Z,79.70
2022-10-15T23:17:42.076Z,79.60
2022-10-15T23:20:12.862Z,79.60
2022-10-15T23:22:41.958Z,79.60
2022-10-15T23:25:11.139Z,79.60
2022-10-15T23:27:39.878Z,79.50
2022-10-15T23:30:14.682Z,79.50
2022-10-15T23:32:52.808Z,79.50
2022-10-15T23:35:24.928Z,79.60
2022-10-15T23:37:53.948Z,79.60
2022-10-15T23:40:22.806Z,79.70
2022-10-15T23:42:51.634Z,79.60
2022-10-15T23:45:20.673Z,79.70
2022-10-15T23:47:49.832Z,79.70
2022-10-15T23:50:18.872Z,79.80
2022-10-15T23:52:49.503Z,79.70
2022-10-15T23:55:18.386Z,79.80
2022-10-15T23:57:47.103Z,79.80
